Terminal Aerodrome Forecast
Issued by NWS Jackson, KY

Home | Current Version | Previous Version | Text Only | Print | Product List | Glossary On
Versions: 1 2 3 4 5 6 7 8 9 10 11 12 13 14 15 16 17 18 19 20 21 22 23 24 25 26
000
FTUS43 KJKL 200500
TAFJKL
TAF
KJKL 200538Z 2006/2106 VRB03KT 6SM BR VCSH BKN250
     FM200800 VRB03KT 4SM BR VCSH SCT040 BKN060
     FM201300 VRB04KT P6SM BKN050
     FM201800 26004KT P6SM VCTS SCT025CB BKN050=

USA.gov is the U.S. government's official web portal to all federal, state and local government web resources and services.